createdAt,value
2022-11-01T00:03:26.686Z,14.44
2022-11-01T00:08:29.213Z,14.56
2022-11-01T00:13:31.808Z,14.53
2022-11-01T00:18:34.032Z,14.41
2022-11-01T00:23:37.530Z,14.52
2022-11-01T00:28:39.972Z,14.38
2022-11-01T00:33:42.559Z,14.37
2022-11-01T00:38:44.743Z,14.24
2022-11-01T00:43:47.056Z,14.06
2022-11-01T00:48:50.037Z,14.06
2022-11-01T00:53:52.452Z,13.98
2022-11-01T00:58:54.661Z,13.98
2022-11-01T01:03:56.890Z,13.95
2022-11-01T01:09:00.917Z,14.09
2022-11-01T01:14:03.326Z,13.95
2022-11-01T01:19:05.700Z,13.90
2022-11-01T01:24:08.062Z,13.93
2022-11-01T01:29:10.378Z,13.91
2022-11-01T01:34:12.571Z,14.00
2022-11-01T01:39:14.998Z,13.98
2022-11-01T01:44:50.419Z,14.04
2022-11-01T01:50:12.697Z,14.03
2022-11-01T01:55:19.265Z,13.85
2022-11-01T02:00:21.795Z,13.78
2022-11-01T02:05:50.279Z,13.59
2022-11-01T02:10:52.929Z,13.68
2022-11-01T02:16:19.802Z,13.73
2022-11-01T02:21:24.741Z,13.71
2022-11-01T02:26:49.359Z,13.40
2022-11-01T02:32:21.140Z,13.57
2022-11-01T02:37:54.249Z,13.44
2022-11-01T02:43:05.693Z,13.48
2022-11-01T02:48:08.217Z,13.32
2022-11-01T02:53:11.237Z,13.37
2022-11-01T02:58:29.212Z,13.24
2022-11-01T03:03:36.425Z,13.25
2022-11-01T03:08:45.765Z,13.22
2022-11-01T03:13:54.126Z,13.33
2022-11-01T03:19:05.356Z,13.28
2022-11-01T03:24:30.367Z,13.11
2022-11-01T03:29:35.799Z,13.00
2022-11-01T03:34:39.739Z,13.00
2022-11-01T03:39:44.234Z,12.98
2022-11-01T03:44:51.194Z,12.65
2022-11-01T03:50:16.751Z,12.93
2022-11-01T03:55:20.499Z,12.90
2022-11-01T04:00:26.949Z,12.86
2022-11-01T04:05:31.655Z,12.79
2022-11-01T04:10:34.430Z,12.67
2022-11-01T04:15:55.499Z,12.64
2022-11-01T04:20:58.304Z,12.63
2022-11-01T04:26:00.600Z,12.59
2022-11-01T04:31:03.072Z,12.57
2022-11-01T04:36:09.079Z,12.62
2022-11-01T04:41:12.126Z,12.69
2022-11-01T04:46:14.816Z,12.76
2022-11-01T04:51:17.420Z,12.63
2022-11-01T04:56:19.568Z,12.76
2022-11-01T05:01:22.149Z,12.57
2022-11-01T05:06:24.586Z,12.52
2022-11-01T05:11:27.043Z,12.56
2022-11-01T05:16:29.289Z,12.58
2022-11-01T05:21:31.534Z,12.51
2022-11-01T05:26:34.166Z,12.65
2022-11-01T05:31:37.343Z,12.75
2022-11-01T05:36:40.196Z,12.67
2022-11-01T05:41:42.388Z,12.74
2022-11-01T05:46:44.911Z,12.95
2022-11-01T05:51:47.444Z,13.04
2022-11-01T05:56:49.985Z,13.13
2022-11-01T06:01:52.530Z,13.32
2022-11-01T06:06:54.813Z,13.45
2022-11-01T06:11:57.177Z,13.63
2022-11-01T06:16:59.532Z,13.56
2022-11-01T06:22:01.921Z,13.90
2022-11-01T06:27:07.433Z,13.94
2022-11-01T06:32:12.358Z,14.09
2022-11-01T06:37:14.631Z,14.13
2022-11-01T06:42:17.075Z,14.31
2022-11-01T06:47:19.441Z,14.39
2022-11-01T06:52:21.750Z,14.54
2022-11-01T06:57:24.332Z,14.86
2022-11-01T07:02:29.595Z,15.04
2022-11-01T07:07:32.333Z,15.12
2022-11-01T07:12:34.653Z,15.47
2022-11-01T07:17:37.020Z,15.65
2022-11-01T07:22:39.378Z,15.81
2022-11-01T07:27:41.806Z,15.99
2022-11-01T07:32:44.099Z,16.17
2022-11-01T07:37:46.318Z,16.35
2022-11-01T07:42:48.562Z,16.46
2022-11-01T07:47:51.100Z,16.70
2022-11-01T07:53:07.788Z,16.75
2022-11-01T07:58:11.189Z,17.00
2022-11-01T08:03:18.645Z,17.22
2022-11-01T08:08:21.065Z,17.32
2022-11-01T08:13:25.429Z,17.45
2022-11-01T08:18:27.666Z,17.67
2022-11-01T08:23:30.205Z,17.84
2022-11-01T08:28:33.516Z,17.99
2022-11-01T08:33:36.092Z,18.09
2022-11-01T08:38:38.442Z,18.28
2022-11-01T08:43:40.940Z,18.25
2022-11-01T08:48:43.360Z,18.59
2022-11-01T08:53:45.528Z,18.44
2022-11-01T08:58:49.880Z,18.90
2022-11-01T09:03:53.670Z,19.00
2022-11-01T09:08:56.535Z,19.16
2022-11-01T09:13:59.262Z,19.42
2022-11-01T09:19:02.261Z,19.42
2022-11-01T09:24:04.658Z,19.59
2022-11-01T09:29:06.948Z,19.72
2022-11-01T09:34:09.091Z,19.89
2022-11-01T09:39:11.503Z,20.15
2022-11-01T09:44:26.620Z,20.16
2022-11-01T09:49:33.700Z,20.29
2022-11-01T09:54:36.029Z,20.60
2022-11-01T09:59:41.335Z,20.75
2022-11-01T10:05:08.558Z,20.94
2022-11-01T10:10:32.487Z,21.02
2022-11-01T10:16:00.399Z,21.04
2022-11-01T10:21:09.135Z,21.25
2022-11-01T10:26:16.925Z,21.54
2022-11-01T10:31:24.216Z,21.61
2022-11-01T10:41:50.927Z,21.79
2022-11-01T10:46:53.979Z,21.95
2022-11-01T10:52:03.190Z,22.11
2022-11-01T10:57:10.968Z,22.40
2022-11-01T11:02:38.968Z,22.47
2022-11-01T11:07:41.990Z,22.67
2022-11-01T11:12:46.714Z,22.74
2022-11-01T11:17:55.147Z,22.99
2022-11-01T11:23:02.375Z,23.05
2022-11-01T11:28:06.092Z,23.08
2022-11-01T11:33:18.337Z,23.16
2022-11-01T11:38:42.026Z,23.32
2022-11-01T11:43:44.282Z,23.51
2022-11-01T11:48:52.905Z,23.56
2022-11-01T11:54:21.574Z,23.77
2022-11-01T11:59:30.049Z,23.97
2022-11-01T12:04:40.925Z,24.09
2022-11-01T12:09:48.725Z,24.23
2022-11-01T12:14:52.642Z,24.30
2022-11-01T12:20:14.448Z,24.49
2022-11-01T12:25:25.453Z,24.39
2022-11-01T12:30:31.432Z,24.44
2022-11-01T12:35:44.791Z,24.55
2022-11-01T12:40:51.000Z,24.63
2022-11-01T12:46:03.205Z,24.72
2022-11-01T12:51:12.779Z,24.87
2022-11-01T12:56:15.365Z,24.99
2022-11-01T13:01:24.879Z,24.98
2022-11-01T13:06:45.567Z,25.18
2022-11-01T13:12:25.837Z,25.41
2022-11-01T13:17:56.993Z,25.63
2022-11-01T13:23:12.044Z,25.68
2022-11-01T13:28:26.502Z,25.77
2022-11-01T13:33:40.690Z,25.72
2022-11-01T13:38:53.553Z,25.77
2022-11-01T13:44:03.361Z,25.92
2022-11-01T13:49:11.078Z,26.06
2022-11-01T13:54:32.932Z,26.17
2022-11-01T13:59:37.957Z,26.29
2022-11-01T14:04:40.802Z,26.34
2022-11-01T14:09:52.303Z,26.49
2022-11-01T14:14:54.565Z,26.59
2022-11-01T14:19:56.806Z,26.83
2022-11-01T14:25:24.654Z,26.81
2022-11-01T14:30:32.694Z,27.16
2022-11-01T14:35:38.128Z,27.24
2022-11-01T14:40:53.858Z,27.17
2022-11-01T14:46:14.676Z,27.02
2022-11-01T14:51:38.269Z,26.60
2022-11-01T14:56:41.282Z,26.18
2022-11-01T15:01:49.473Z,25.77
2022-11-01T15:06:52.525Z,25.33
2022-11-01T15:12:05.774Z,24.92
2022-11-01T15:17:23.278Z,24.67
2022-11-01T15:22:32.461Z,24.33
2022-11-01T15:27:45.191Z,23.98
2022-11-01T15:32:53.762Z,23.75
2022-11-01T15:37:57.738Z,23.52
2022-11-01T15:43:02.116Z,23.25
2022-11-01T15:48:12.845Z,22.92
2022-11-01T15:53:20.942Z,22.67
2022-11-01T15:58:32.609Z,22.36
2022-11-01T16:03:45.505Z,22.14
2022-11-01T16:08:53.861Z,21.84
2022-11-01T16:14:07.716Z,21.77
2022-11-01T16:19:28.305Z,21.29
2022-11-01T16:24:32.653Z,21.16
2022-11-01T16:29:51.771Z,21.12
2022-11-01T16:34:55.844Z,20.89
2022-11-01T16:40:00.955Z,20.79
2022-11-01T16:45:03.486Z,20.59
2022-11-01T16:50:06.098Z,20.66
2022-11-01T16:55:08.804Z,20.54
2022-11-01T17:00:14.272Z,20.57
2022-11-01T17:05:24.111Z,20.23
2022-11-01T17:10:26.673Z,20.11
2022-11-01T17:15:29.745Z,20.12
2022-11-01T17:20:32.714Z,20.08
2022-11-01T17:25:34.889Z,19.93
2022-11-01T17:30:37.555Z,19.63
2022-11-01T17:35:40.820Z,19.65
2022-11-01T17:40:46.138Z,19.43
2022-11-01T17:45:49.902Z,19.33
2022-11-01T17:50:52.264Z,19.23
2022-11-01T17:55:58.302Z,19.27
2022-11-01T18:01:00.550Z,19.14
2022-11-01T18:06:03.082Z,19.03
2022-11-01T18:11:32.811Z,18.93
2022-11-01T18:16:55.135Z,18.66
2022-11-01T18:22:06.151Z,18.70
2022-11-01T18:27:13.980Z,18.51
2022-11-01T18:32:22.723Z,18.58
2022-11-01T18:38:03.552Z,18.40
2022-11-01T18:43:09.038Z,18.24
2022-11-01T18:48:24.955Z,18.23
2022-11-01T18:53:29.983Z,18.14
2022-11-01T18:58:40.507Z,18.19
2022-11-01T19:03:43.013Z,18.10
2022-11-01T19:08:53.040Z,17.93
2022-11-01T19:13:59.752Z,17.94
2022-11-01T19:19:01.956Z,17.89
2022-11-01T19:24:17.019Z,17.74
2022-11-01T19:29:26.561Z,17.82
2022-11-01T19:34:30.454Z,17.74
2022-11-01T19:39:38.627Z,17.69
2022-11-01T19:44:40.913Z,17.41
2022-11-01T19:49:43.520Z,17.44
2022-11-01T19:54:49.970Z,17.41
2022-11-01T19:59:53.612Z,17.36
2022-11-01T20:04:59.971Z,17.05
2022-11-01T20:10:02.824Z,17.10
2022-11-01T20:15:05.272Z,17.07
2022-11-01T20:20:08.062Z,16.84
2022-11-01T20:25:10.325Z,16.86
2022-11-01T20:30:12.810Z,16.77
2022-11-01T20:35:15.122Z,16.73
2022-11-01T20:40:17.651Z,16.59
2022-11-01T20:45:19.942Z,16.54
2022-11-01T20:50:22.208Z,16.49
2022-11-01T20:55:24.719Z,16.26
2022-11-01T21:00:27.632Z,16.34
2022-11-01T21:05:31.826Z,16.35
2022-11-01T21:10:40.504Z,16.36
2022-11-01T21:15:46.649Z,16.20
2022-11-01T21:20:50.366Z,16.22
2022-11-01T21:25:58.296Z,16.24
2022-11-01T21:31:20.776Z,16.09
2022-11-01T21:36:23.106Z,16.12
2022-11-01T21:41:45.586Z,15.92
2022-11-01T21:46:55.652Z,15.79
2022-11-01T21:52:01.064Z,15.75
2022-11-01T21:57:05.911Z,15.80
2022-11-01T22:02:11.813Z,15.73
2022-11-01T22:07:14.285Z,15.64
2022-11-01T22:12:17.082Z,15.49
2022-11-01T22:17:19.536Z,15.66
2022-11-01T22:22:21.754Z,15.41
2022-11-01T22:27:23.997Z,15.43
2022-11-01T22:32:26.168Z,15.67
2022-11-01T22:37:30.888Z,15.58
2022-11-01T22:42:33.098Z,15.42
2022-11-01T22:47:35.719Z,15.46
2022-11-01T22:52:41.785Z,15.44
2022-11-01T22:57:58.688Z,15.38
2022-11-01T23:03:20.336Z,15.23
2022-11-01T23:08:30.032Z,15.09
2022-11-01T23:13:51.803Z,15.21
2022-11-01T23:19:01.816Z,15.25
2022-11-01T23:24:04.509Z,15.13
2022-11-01T23:29:06.812Z,15.13
2022-11-01T23:34:11.135Z,14.88
2022-11-01T23:39:15.184Z,15.08
2022-11-01T23:44:31.317Z,15.09
2022-11-01T23:49:35.252Z,14.91
2022-11-01T23:54:43.392Z,15.12
2022-11-01T23:59:46.222Z,14.84
